sensor_id;sensor_type;location;lat;lon;timestamp;temperature;humidity
11838;DHT22;5978;51.020;6.764;2022-12-18T00:01:41;-4.80;99.90
11838;DHT22;5978;51.020;6.764;2022-12-18T00:04:11;-4.90;99.90
11838;DHT22;5978;51.020;6.764;2022-12-18T00:06:40;-4.90;99.90
11838;DHT22;5978;51.020;6.764;2022-12-18T00:09:06;-4.80;99.90
11838;DHT22;5978;51.020;6.764;2022-12-18T00:11:31;-4.80;99.90
11838;DHT22;5978;51.020;6.764;2022-12-18T00:13:58;-4.80;99.90
11838;DHT22;5978;51.020;6.764;2022-12-18T00:16:25;-4.80;99.90
11838;DHT22;5978;51.020;6.764;2022-12-18T00:18:54;-4.80;99.90
11838;DHT22;5978;51.020;6.764;2022-12-18T00:21:20;-4.80;99.90
11838;DHT22;5978;51.020;6.764;2022-12-18T00:23:47;-4.80;99.90
11838;DHT22;5978;51.020;6.764;2022-12-18T00:26:18;-4.80;99.90
11838;DHT22;5978;51.020;6.764;2022-12-18T00:28:45;-4.90;99.90
11838;DHT22;5978;51.020;6.764;2022-12-18T00:31:16;-4.90;99.90
11838;DHT22;5978;51.020;6.764;2022-12-18T00:33:42;-4.90;99.90
11838;DHT22;5978;51.020;6.764;2022-12-18T00:36:17;-4.90;99.90
11838;DHT22;5978;51.020;6.764;2022-12-18T00:38:43;-5.00;99.90
11838;DHT22;5978;51.020;6.764;2022-12-18T00:41:11;-5.00;99.90
11838;DHT22;5978;51.020;6.764;2022-12-18T00:43:37;-5.00;99.90
11838;DHT22;5978;51.020;6.764;2022-12-18T00:46:03;-5.00;99.90
11838;DHT22;5978;51.020;6.764;2022-12-18T00:48:29;-5.00;99.90
11838;DHT22;5978;51.020;6.764;2022-12-18T00:50:54;-5.00;99.90
11838;DHT22;5978;51.020;6.764;2022-12-18T00:53:20;-5.10;99.90
11838;DHT22;5978;51.020;6.764;2022-12-18T00:55:46;-5.20;99.90
11838;DHT22;5978;51.020;6.764;2022-12-18T00:58:14;-5.10;99.90
11838;DHT22;5978;51.020;6.764;2022-12-18T01:00:40;-5.10;99.90
11838;DHT22;5978;51.020;6.764;2022-12-18T01:03:06;-5.10;99.90
11838;DHT22;5978;51.020;6.764;2022-12-18T01:05:32;-5.10;99.90
11838;DHT22;5978;51.020;6.764;2022-12-18T01:07:58;-5.20;99.90
11838;DHT22;5978;51.020;6.764;2022-12-18T01:10:24;-5.10;99.90
11838;DHT22;5978;51.020;6.764;2022-12-18T01:12:50;-5.10;99.90
11838;DHT22;5978;51.020;6.764;2022-12-18T01:15:16;-5.10;99.90
11838;DHT22;5978;51.020;6.764;2022-12-18T01:17:42;-5.10;99.90
11838;DHT22;5978;51.020;6.764;2022-12-18T01:20:09;-5.10;99.90
11838;DHT22;5978;51.020;6.764;2022-12-18T01:22:35;-5.10;99.90
11838;DHT22;5978;51.020;6.764;2022-12-18T01:25:01;-5.10;99.90
11838;DHT22;5978;51.020;6.764;2022-12-18T01:27:27;-5.10;99.90
11838;DHT22;5978;51.020;6.764;2022-12-18T01:29:52;-5.10;99.90
11838;DHT22;5978;51.020;6.764;2022-12-18T01:32:18;-5.10;99.90
11838;DHT22;5978;51.020;6.764;2022-12-18T01:34:44;-5.10;99.90
11838;DHT22;5978;51.020;6.764;2022-12-18T01:37:10;-5.20;99.90
11838;DHT22;5978;51.020;6.764;2022-12-18T01:39:35;-5.20;99.90
11838;DHT22;5978;51.020;6.764;2022-12-18T01:42:12;-5.20;99.90
11838;DHT22;5978;51.020;6.764;2022-12-18T01:44:58;-5.20;99.90
11838;DHT22;5978;51.020;6.764;2022-12-18T01:52:33;-5.20;99.90
11838;DHT22;5978;51.020;6.764;2022-12-18T01:55:00;-5.20;99.90
11838;DHT22;5978;51.020;6.764;2022-12-18T01:57:27;-5.20;99.90
11838;DHT22;5978;51.020;6.764;2022-12-18T01:59:59;-5.20;99.90
11838;DHT22;5978;51.020;6.764;2022-12-18T02:02:27;-5.20;99.90
11838;DHT22;5978;51.020;6.764;2022-12-18T02:04:53;-5.20;99.90
11838;DHT22;5978;51.020;6.764;2022-12-18T02:15:24;-5.10;99.90
11838;DHT22;5978;51.020;6.764;2022-12-18T02:18:01;-5.10;99.90
11838;DHT22;5978;51.020;6.764;2022-12-18T02:20:37;-5.10;99.90
11838;DHT22;5978;51.020;6.764;2022-12-18T02:28:46;-5.10;99.90
11838;DHT22;5978;51.020;6.764;2022-12-18T02:31:18;-5.10;99.90
11838;DHT22;5978;51.020;6.764;2022-12-18T02:33:45;-5.20;99.90
11838;DHT22;5978;51.020;6.764;2022-12-18T02:36:12;-5.20;99.90
11838;DHT22;5978;51.020;6.764;2022-12-18T02:38:41;-5.20;99.90
11838;DHT22;5978;51.020;6.764;2022-12-18T02:41:07;-5.20;99.90
11838;DHT22;5978;51.020;6.764;2022-12-18T02:43:33;-5.20;99.90
11838;DHT22;5978;51.020;6.764;2022-12-18T02:46:00;-5.20;99.90
11838;DHT22;5978;51.020;6.764;2022-12-18T02:48:33;-5.20;99.90
11838;DHT22;5978;51.020;6.764;2022-12-18T02:51:18;-5.10;99.90
11838;DHT22;5978;51.020;6.764;2022-12-18T02:53:53;-5.10;99.90
11838;DHT22;5978;51.020;6.764;2022-12-18T02:56:23;-5.10;99.90
11838;DHT22;5978;51.020;6.764;2022-12-18T02:59:06;-5.20;99.90
11838;DHT22;5978;51.020;6.764;2022-12-18T03:01:46;-5.10;99.90
11838;DHT22;5978;51.020;6.764;2022-12-18T03:04:44;-5.10;99.90
11838;DHT22;5978;51.020;6.764;2022-12-18T03:07:15;-5.20;99.90
11838;DHT22;5978;51.020;6.764;2022-12-18T03:09:46;-5.20;99.90
11838;DHT22;5978;51.020;6.764;2022-12-18T03:12:23;-5.20;99.90
11838;DHT22;5978;51.020;6.764;2022-12-18T03:15:16;-5.20;99.90
11838;DHT22;5978;51.020;6.764;2022-12-18T03:17:46;-5.20;99.90
11838;DHT22;5978;51.020;6.764;2022-12-18T03:20:17;-5.30;99.90
11838;DHT22;5978;51.020;6.764;2022-12-18T03:22:48;-5.30;99.90
11838;DHT22;5978;51.020;6.764;2022-12-18T03:25:16;-5.30;99.90
11838;DHT22;5978;51.020;6.764;2022-12-18T03:27:49;-5.30;99.90
11838;DHT22;5978;51.020;6.764;2022-12-18T03:30:16;-5.30;99.90
11838;DHT22;5978;51.020;6.764;2022-12-18T03:32:57;-5.30;99.90
11838;DHT22;5978;51.020;6.764;2022-12-18T03:35:29;-5.30;99.90
11838;DHT22;5978;51.020;6.764;2022-12-18T03:37:55;-5.40;99.90
11838;DHT22;5978;51.020;6.764;2022-12-18T03:40:26;-5.40;99.90
11838;DHT22;5978;51.020;6.764;2022-12-18T03:43:02;-5.30;99.90
11838;DHT22;5978;51.020;6.764;2022-12-18T03:45:36;-5.40;99.90
11838;DHT22;5978;51.020;6.764;2022-12-18T03:50:57;-5.40;99.90
11838;DHT22;5978;51.020;6.764;2022-12-18T03:53:39;-5.40;99.90
11838;DHT22;5978;51.020;6.764;2022-12-18T03:56:08;-5.40;99.90
11838;DHT22;5978;51.020;6.764;2022-12-18T03:58:35;-5.30;99.90
11838;DHT22;5978;51.020;6.764;2022-12-18T04:01:05;-5.30;99.90
11838;DHT22;5978;51.020;6.764;2022-12-18T04:03:33;-5.30;99.90
11838;DHT22;5978;51.020;6.764;2022-12-18T04:06:00;-5.30;99.90
11838;DHT22;5978;51.020;6.764;2022-12-18T04:08:27;-5.20;99.90
11838;DHT22;5978;51.020;6.764;2022-12-18T04:10:54;-5.20;99.90
11838;DHT22;5978;51.020;6.764;2022-12-18T04:13:24;-5.20;99.90
11838;DHT22;5978;51.020;6.764;2022-12-18T04:15:50;-5.20;99.90
11838;DHT22;5978;51.020;6.764;2022-12-18T04:18:16;-5.20;99.90
11838;DHT22;5978;51.020;6.764;2022-12-18T04:20:41;-5.20;99.90
11838;DHT22;5978;51.020;6.764;2022-12-18T04:23:07;-5.20;99.90
11838;DHT22;5978;51.020;6.764;2022-12-18T04:25:32;-5.30;99.90
11838;DHT22;5978;51.020;6.764;2022-12-18T04:27:58;-5.20;99.90
11838;DHT22;5978;51.020;6.764;2022-12-18T04:30:23;-5.20;99.90
11838;DHT22;5978;51.020;6.764;2022-12-18T04:32:49;-5.30;99.90
11838;DHT22;5978;51.020;6.764;2022-12-18T04:35:14;-5.30;99.90
11838;DHT22;5978;51.020;6.764;2022-12-18T04:37:40;-5.20;99.90
11838;DHT22;5978;51.020;6.764;2022-12-18T04:40:06;-5.30;99.90
11838;DHT22;5978;51.020;6.764;2022-12-18T04:42:31;-5.20;99.90
11838;DHT22;5978;51.020;6.764;2022-12-18T04:44:57;-5.20;99.90
11838;DHT22;5978;51.020;6.764;2022-12-18T04:47:22;-5.20;99.90
11838;DHT22;5978;51.020;6.764;2022-12-18T04:49:48;-5.20;99.90
11838;DHT22;5978;51.020;6.764;2022-12-18T04:52:14;-5.20;99.90
11838;DHT22;5978;51.020;6.764;2022-12-18T04:54:39;-5.20;99.90
11838;DHT22;5978;51.020;6.764;2022-12-18T04:57:05;-5.20;99.90
11838;DHT22;5978;51.020;6.764;2022-12-18T04:59:30;-5.20;99.90
11838;DHT22;5978;51.020;6.764;2022-12-18T05:01:56;-5.20;99.90
11838;DHT22;5978;51.020;6.764;2022-12-18T05:04:21;-5.20;99.90
11838;DHT22;5978;51.020;6.764;2022-12-18T05:06:47;-5.20;99.90
11838;DHT22;5978;51.020;6.764;2022-12-18T05:09:13;-5.20;99.90
11838;DHT22;5978;51.020;6.764;2022-12-18T05:11:38;-5.10;99.90
11838;DHT22;5978;51.020;6.764;2022-12-18T05:14:04;-5.10;99.90
11838;DHT22;5978;51.020;6.764;2022-12-18T05:16:29;-5.00;99.90
11838;DHT22;5978;51.020;6.764;2022-12-18T05:18:55;-5.00;99.90
11838;DHT22;5978;51.020;6.764;2022-12-18T05:21:21;-5.00;99.90
11838;DHT22;5978;51.020;6.764;2022-12-18T05:23:46;-5.00;99.90
11838;DHT22;5978;51.020;6.764;2022-12-18T05:26:18;-5.00;99.90
11838;DHT22;5978;51.020;6.764;2022-12-18T05:28:43;-5.00;99.90
11838;DHT22;5978;51.020;6.764;2022-12-18T05:31:09;-5.00;99.90
11838;DHT22;5978;51.020;6.764;2022-12-18T05:33:35;-5.00;99.90
11838;DHT22;5978;51.020;6.764;2022-12-18T05:36:03;-5.00;99.90
11838;DHT22;5978;51.020;6.764;2022-12-18T05:38:31;-5.00;99.90
11838;DHT22;5978;51.020;6.764;2022-12-18T05:40:57;-5.00;99.90
11838;DHT22;5978;51.020;6.764;2022-12-18T05:43:24;-5.00;99.90
11838;DHT22;5978;51.020;6.764;2022-12-18T05:45:50;-5.00;99.90
11838;DHT22;5978;51.020;6.764;2022-12-18T05:48:16;-5.00;99.90
11838;DHT22;5978;51.020;6.764;2022-12-18T05:50:43;-5.10;99.90
11838;DHT22;5978;51.020;6.764;2022-12-18T05:53:11;-5.00;99.90
11838;DHT22;5978;51.020;6.764;2022-12-18T05:55:38;-5.00;99.90
11838;DHT22;5978;51.020;6.764;2022-12-18T05:58:05;-5.00;99.90
11838;DHT22;5978;51.020;6.764;2022-12-18T06:00:33;-5.00;99.90
11838;DHT22;5978;51.020;6.764;2022-12-18T06:03:00;-5.00;99.90
11838;DHT22;5978;51.020;6.764;2022-12-18T06:05:26;-5.00;99.90
11838;DHT22;5978;51.020;6.764;2022-12-18T06:07:52;-5.00;99.90
11838;DHT22;5978;51.020;6.764;2022-12-18T06:10:18;-5.00;99.90
11838;DHT22;5978;51.020;6.764;2022-12-18T06:12:43;-5.00;99.90
11838;DHT22;5978;51.020;6.764;2022-12-18T06:15:09;-5.00;99.90
11838;DHT22;5978;51.020;6.764;2022-12-18T06:17:35;-5.00;99.90
11838;DHT22;5978;51.020;6.764;2022-12-18T06:20:01;-5.10;99.90
11838;DHT22;5978;51.020;6.764;2022-12-18T06:22:27;-5.10;99.90
11838;DHT22;5978;51.020;6.764;2022-12-18T06:24:52;-5.10;99.90
11838;DHT22;5978;51.020;6.764;2022-12-18T06:27:18;-5.10;99.90
11838;DHT22;5978;51.020;6.764;2022-12-18T06:29:44;-5.10;99.90
11838;DHT22;5978;51.020;6.764;2022-12-18T06:32:09;-5.10;99.90
11838;DHT22;5978;51.020;6.764;2022-12-18T06:34:37;-5.10;99.90
11838;DHT22;5978;51.020;6.764;2022-12-18T06:37:03;-5.10;99.90
11838;DHT22;5978;51.020;6.764;2022-12-18T06:39:29;-5.10;99.90
11838;DHT22;5978;51.020;6.764;2022-12-18T06:41:54;-5.10;99.90
11838;DHT22;5978;51.020;6.764;2022-12-18T06:44:20;-5.10;99.90
11838;DHT22;5978;51.020;6.764;2022-12-18T06:46:46;-5.00;99.90
11838;DHT22;5978;51.020;6.764;2022-12-18T06:49:11;-5.10;99.90
11838;DHT22;5978;51.020;6.764;2022-12-18T06:51:37;-5.10;99.90
11838;DHT22;5978;51.020;6.764;2022-12-18T06:54:03;-5.00;99.90
11838;DHT22;5978;51.020;6.764;2022-12-18T06:56:29;-5.00;99.90
11838;DHT22;5978;51.020;6.764;2022-12-18T06:58:54;-5.00;99.90
11838;DHT22;5978;51.020;6.764;2022-12-18T07:01:21;-5.00;99.90
11838;DHT22;5978;51.020;6.764;2022-12-18T07:03:47;-4.90;99.90
11838;DHT22;5978;51.020;6.764;2022-12-18T07:06:18;-4.90;99.90
11838;DHT22;5978;51.020;6.764;2022-12-18T07:08:45;-4.90;99.90
11838;DHT22;5978;51.020;6.764;2022-12-18T07:11:11;-4.90;99.90
11838;DHT22;5978;51.020;6.764;2022-12-18T07:13:36;-4.90;99.90
11838;DHT22;5978;51.020;6.764;2022-12-18T07:16:10;-4.90;99.90
11838;DHT22;5978;51.020;6.764;2022-12-18T07:18:36;-4.90;99.90
11838;DHT22;5978;51.020;6.764;2022-12-18T07:21:04;-4.90;99.90
11838;DHT22;5978;51.020;6.764;2022-12-18T07:23:30;-4.90;99.90
11838;DHT22;5978;51.020;6.764;2022-12-18T07:25:55;-4.80;99.90
11838;DHT22;5978;51.020;6.764;2022-12-18T07:28:21;-4.80;99.90
11838;DHT22;5978;51.020;6.764;2022-12-18T07:30:46;-4.80;99.90
11838;DHT22;5978;51.020;6.764;2022-12-18T07:33:12;-4.80;99.90
11838;DHT22;5978;51.020;6.764;2022-12-18T07:35:37;-4.80;99.90
11838;DHT22;5978;51.020;6.764;2022-12-18T07:38:03;-4.80;99.90
11838;DHT22;5978;51.020;6.764;2022-12-18T07:40:28;-4.80;99.90
11838;DHT22;5978;51.020;6.764;2022-12-18T07:42:54;-4.70;99.90
11838;DHT22;5978;51.020;6.764;2022-12-18T07:45:19;-4.70;99.90
11838;DHT22;5978;51.020;6.764;2022-12-18T07:47:45;-4.70;99.90
11838;DHT22;5978;51.020;6.764;2022-12-18T07:50:11;-4.70;99.90
11838;DHT22;5978;51.020;6.764;2022-12-18T07:52:36;-4.70;99.90
11838;DHT22;5978;51.020;6.764;2022-12-18T07:55:02;-4.70;99.90
11838;DHT22;5978;51.020;6.764;2022-12-18T07:57:28;-4.70;99.90
11838;DHT22;5978;51.020;6.764;2022-12-18T07:59:53;-4.60;99.90
11838;DHT22;5978;51.020;6.764;2022-12-18T08:02:19;-4.60;99.90
11838;DHT22;5978;51.020;6.764;2022-12-18T08:04:44;-4.50;99.90
11838;DHT22;5978;51.020;6.764;2022-12-18T08:07:10;-4.40;99.90
11838;DHT22;5978;51.020;6.764;2022-12-18T08:09:35;-4.40;99.90
11838;DHT22;5978;51.020;6.764;2022-12-18T08:12:01;-4.30;99.90
11838;DHT22;5978;51.020;6.764;2022-12-18T08:14:26;-4.20;99.90
11838;DHT22;5978;51.020;6.764;2022-12-18T08:16:52;-4.20;99.90
11838;DHT22;5978;51.020;6.764;2022-12-18T08:19:17;-4.10;99.90
11838;DHT22;5978;51.020;6.764;2022-12-18T08:21:43;-4.00;99.90
11838;DHT22;5978;51.020;6.764;2022-12-18T08:24:09;-3.90;99.90
11838;DHT22;5978;51.020;6.764;2022-12-18T08:26:34;-3.90;99.90
11838;DHT22;5978;51.020;6.764;2022-12-18T08:29:00;-3.80;99.90
11838;DHT22;5978;51.020;6.764;2022-12-18T08:31:27;-3.70;99.90
11838;DHT22;5978;51.020;6.764;2022-12-18T08:33:53;-3.70;99.90
11838;DHT22;5978;51.020;6.764;2022-12-18T08:36:19;-3.70;99.90
11838;DHT22;5978;51.020;6.764;2022-12-18T08:38:46;-3.60;99.90
11838;DHT22;5978;51.020;6.764;2022-12-18T08:41:13;-3.50;99.90
11838;DHT22;5978;51.020;6.764;2022-12-18T08:43:39;-3.50;99.90
11838;DHT22;5978;51.020;6.764;2022-12-18T08:46:27;-3.40;99.90
11838;DHT22;5978;51.020;6.764;2022-12-18T08:48:54;-3.30;99.90
11838;DHT22;5978;51.020;6.764;2022-12-18T08:51:20;-3.30;99.90
11838;DHT22;5978;51.020;6.764;2022-12-18T08:53:46;-3.20;99.90
11838;DHT22;5978;51.020;6.764;2022-12-18T08:56:13;-3.00;99.90
11838;DHT22;5978;51.020;6.764;2022-12-18T08:58:39;-2.90;99.90
11838;DHT22;5978;51.020;6.764;2022-12-18T09:01:08;-2.90;99.90
11838;DHT22;5978;51.020;6.764;2022-12-18T09:03:34;-2.80;99.90
11838;DHT22;5978;51.020;6.764;2022-12-18T09:06:00;-2.60;99.90
11838;DHT22;5978;51.020;6.764;2022-12-18T09:08:26;-2.60;99.90
11838;DHT22;5978;51.020;6.764;2022-12-18T09:10:51;-2.60;99.90
11838;DHT22;5978;51.020;6.764;2022-12-18T09:13:18;-2.60;99.90
11838;DHT22;5978;51.020;6.764;2022-12-18T09:15:45;-2.60;99.90
11838;DHT22;5978;51.020;6.764;2022-12-18T09:18:12;-2.70;99.90
11838;DHT22;5978;51.020;6.764;2022-12-18T09:20:39;-2.80;99.90
11838;DHT22;5978;51.020;6.764;2022-12-18T09:23:05;-2.80;99.90
11838;DHT22;5978;51.020;6.764;2022-12-18T09:25:31;-2.70;99.90
11838;DHT22;5978;51.020;6.764;2022-12-18T09:27:59;-2.60;99.90
11838;DHT22;5978;51.020;6.764;2022-12-18T09:30:25;-2.60;99.90
11838;DHT22;5978;51.020;6.764;2022-12-18T09:32:51;-2.50;99.90
11838;DHT22;5978;51.020;6.764;2022-12-18T09:35:16;-2.60;99.90
11838;DHT22;5978;51.020;6.764;2022-12-18T09:37:42;-2.60;99.90
11838;DHT22;5978;51.020;6.764;2022-12-18T09:40:14;-2.50;99.90
11838;DHT22;5978;51.020;6.764;2022-12-18T09:42:45;-2.40;99.90
11838;DHT22;5978;51.020;6.764;2022-12-18T09:45:13;-2.30;99.90
11838;DHT22;5978;51.020;6.764;2022-12-18T09:47:41;-2.10;99.90
11838;DHT22;5978;51.020;6.764;2022-12-18T09:50:31;-2.20;99.90
11838;DHT22;5978;51.020;6.764;2022-12-18T09:52:59;-2.20;99.90
11838;DHT22;5978;51.020;6.764;2022-12-18T09:55:37;-2.10;99.90
11838;DHT22;5978;51.020;6.764;2022-12-18T10:00:45;-2.00;99.90
11838;DHT22;5978;51.020;6.764;2022-12-18T10:03:13;-2.00;99.90
11838;DHT22;5978;51.020;6.764;2022-12-18T10:13:51;-1.70;99.90
11838;DHT22;5978;51.020;6.764;2022-12-18T10:16:26;-1.60;99.90
11838;DHT22;5978;51.020;6.764;2022-12-18T10:21:32;-1.50;99.90
11838;DHT22;5978;51.020;6.764;2022-12-18T10:26:31;-1.40;99.90
11838;DHT22;5978;51.020;6.764;2022-12-18T10:28:57;-1.40;99.90
11838;DHT22;5978;51.020;6.764;2022-12-18T10:31:24;-1.30;99.90
11838;DHT22;5978;51.020;6.764;2022-12-18T10:33:50;-1.20;99.90
11838;DHT22;5978;51.020;6.764;2022-12-18T10:36:16;-1.10;99.90
11838;DHT22;5978;51.020;6.764;2022-12-18T10:38:42;-1.10;99.90
11838;DHT22;5978;51.020;6.764;2022-12-18T10:46:36;-0.90;99.90
11838;DHT22;5978;51.020;6.764;2022-12-18T10:49:02;-1.00;99.90
11838;DHT22;5978;51.020;6.764;2022-12-18T10:51:34;-0.90;99.90
11838;DHT22;5978;51.020;6.764;2022-12-18T10:54:05;-0.90;99.90
11838;DHT22;5978;51.020;6.764;2022-12-18T10:56:33;-0.70;99.90
11838;DHT22;5978;51.020;6.764;2022-12-18T10:59:02;-0.80;99.90
11838;DHT22;5978;51.020;6.764;2022-12-18T11:01:51;-0.70;99.90
11838;DHT22;5978;51.020;6.764;2022-12-18T11:04:22;-0.70;99.90
11838;DHT22;5978;51.020;6.764;2022-12-18T11:07:05;-0.80;99.90
11838;DHT22;5978;51.020;6.764;2022-12-18T11:09:40;-0.70;99.90
11838;DHT22;5978;51.020;6.764;2022-12-18T11:12:18;-0.60;99.90
11838;DHT22;5978;51.020;6.764;2022-12-18T11:14:47;-0.40;99.90
11838;DHT22;5978;51.020;6.764;2022-12-18T11:17:35;-0.30;99.90
11838;DHT22;5978;51.020;6.764;2022-12-18T11:20:26;-0.10;99.90
11838;DHT22;5978;51.020;6.764;2022-12-18T11:23:12;-0.20;99.90
11838;DHT22;5978;51.020;6.764;2022-12-18T11:25:38;-0.30;99.90
11838;DHT22;5978;51.020;6.764;2022-12-18T11:28:38;-0.20;99.90
11838;DHT22;5978;51.020;6.764;2022-12-18T11:33:44;-0.10;99.90
11838;DHT22;5978;51.020;6.764;2022-12-18T11:36:12;0.00;99.90
11838;DHT22;5978;51.020;6.764;2022-12-18T11:38:40;-0.10;99.90
11838;DHT22;5978;51.020;6.764;2022-12-18T11:41:35;0.00;99.90
11838;DHT22;5978;51.020;6.764;2022-12-18T11:44:28;-0.10;99.90
11838;DHT22;5978;51.020;6.764;2022-12-18T11:47:03;-0.10;99.90
11838;DHT22;5978;51.020;6.764;2022-12-18T11:49:35;-0.20;99.90
11838;DHT22;5978;51.020;6.764;2022-12-18T11:52:12;-0.30;99.90
11838;DHT22;5978;51.020;6.764;2022-12-18T11:54:40;-0.30;99.90
11838;DHT22;5978;51.020;6.764;2022-12-18T12:10:56;-0.60;99.90
11838;DHT22;5978;51.020;6.764;2022-12-18T12:13:34;-0.50;99.90
11838;DHT22;5978;51.020;6.764;2022-12-18T12:19:10;-0.50;99.90
11838;DHT22;5978;51.020;6.764;2022-12-18T12:21:53;-0.40;99.90
11838;DHT22;5978;51.020;6.764;2022-12-18T12:27:20;-0.50;99.90
11838;DHT22;5978;51.020;6.764;2022-12-18T12:38:10;-0.50;99.90
11838;DHT22;5978;51.020;6.764;2022-12-18T12:40:57;-0.40;99.90
11838;DHT22;5978;51.020;6.764;2022-12-18T12:43:41;-0.40;99.90
11838;DHT22;5978;51.020;6.764;2022-12-18T12:46:12;-0.40;99.90
11838;DHT22;5978;51.020;6.764;2022-12-18T12:48:49;-0.50;99.90
11838;DHT22;5978;51.020;6.764;2022-12-18T12:51:32;-0.50;99.90
11838;DHT22;5978;51.020;6.764;2022-12-18T12:54:00;-0.40;99.90
11838;DHT22;5978;51.020;6.764;2022-12-18T12:56:45;-0.40;99.90
11838;DHT22;5978;51.020;6.764;2022-12-18T13:04:42;-0.40;99.90
11838;DHT22;5978;51.020;6.764;2022-12-18T13:07:17;-0.50;99.90
11838;DHT22;5978;51.020;6.764;2022-12-18T13:13:12;-0.40;99.90
11838;DHT22;5978;51.020;6.764;2022-12-18T13:16:03;-0.50;99.90
11838;DHT22;5978;51.020;6.764;2022-12-18T13:18:29;-0.60;99.90
11838;DHT22;5978;51.020;6.764;2022-12-18T13:34:25;-0.60;99.90
11838;DHT22;5978;51.020;6.764;2022-12-18T13:36:52;-0.60;99.90
11838;DHT22;5978;51.020;6.764;2022-12-18T13:41:44;-0.50;99.90
11838;DHT22;5978;51.020;6.764;2022-12-18T13:44:36;-0.50;99.90
11838;DHT22;5978;51.020;6.764;2022-12-18T13:47:03;-0.50;99.90
11838;DHT22;5978;51.020;6.764;2022-12-18T13:49:39;-0.50;99.90
11838;DHT22;5978;51.020;6.764;2022-12-18T13:52:26;-0.50;99.90
11838;DHT22;5978;51.020;6.764;2022-12-18T13:54:57;-0.50;99.90
11838;DHT22;5978;51.020;6.764;2022-12-18T13:57:32;-0.60;99.90
11838;DHT22;5978;51.020;6.764;2022-12-18T14:02:45;-0.60;99.90
11838;DHT22;5978;51.020;6.764;2022-12-18T14:05:27;-0.60;99.90
11838;DHT22;5978;51.020;6.764;2022-12-18T14:07:54;-0.60;99.90
11838;DHT22;5978;51.020;6.764;2022-12-18T14:10:21;-0.60;99.90
11838;DHT22;5978;51.020;6.764;2022-12-18T14:12:48;-0.70;99.90
11838;DHT22;5978;51.020;6.764;2022-12-18T14:15:39;-0.70;99.90
11838;DHT22;5978;51.020;6.764;2022-12-18T14:18:22;-0.80;99.90
11838;DHT22;5978;51.020;6.764;2022-12-18T14:20:50;-0.70;99.90
11838;DHT22;5978;51.020;6.764;2022-12-18T14:23:40;-0.80;99.90
11838;DHT22;5978;51.020;6.764;2022-12-18T14:26:25;-0.80;99.90
11838;DHT22;5978;51.020;6.764;2022-12-18T14:28:55;-0.80;99.90
11838;DHT22;5978;51.020;6.764;2022-12-18T14:31:25;-0.80;99.90
11838;DHT22;5978;51.020;6.764;2022-12-18T14:33:52;-0.80;99.90
11838;DHT22;5978;51.020;6.764;2022-12-18T14:36:24;-0.90;99.90
11838;DHT22;5978;51.020;6.764;2022-12-18T14:38:57;-0.90;99.90
11838;DHT22;5978;51.020;6.764;2022-12-18T14:41:24;-0.80;99.90
11838;DHT22;5978;51.020;6.764;2022-12-18T14:43:52;-0.90;99.90
11838;DHT22;5978;51.020;6.764;2022-12-18T14:46:39;-0.90;99.90
11838;DHT22;5978;51.020;6.764;2022-12-18T14:49:41;-0.90;99.90
11838;DHT22;5978;51.020;6.764;2022-12-18T14:52:25;-0.90;99.90
11838;DHT22;5978;51.020;6.764;2022-12-18T14:54:52;-0.90;99.90
11838;DHT22;5978;51.020;6.764;2022-12-18T14:57:28;-0.90;99.90
11838;DHT22;5978;51.020;6.764;2022-12-18T15:00:07;-0.90;99.90
11838;DHT22;5978;51.020;6.764;2022-12-18T15:02:39;-0.90;99.90
11838;DHT22;5978;51.020;6.764;2022-12-18T15:05:14;-1.00;99.90
11838;DHT22;5978;51.020;6.764;2022-12-18T15:07:43;-1.00;99.90
11838;DHT22;5978;51.020;6.764;2022-12-18T15:10:28;-1.00;99.90
11838;DHT22;5978;51.020;6.764;2022-12-18T15:17:59;-1.00;99.90
11838;DHT22;5978;51.020;6.764;2022-12-18T15:20:25;-1.00;99.90
11838;DHT22;5978;51.020;6.764;2022-12-18T15:22:51;-1.00;99.90
11838;DHT22;5978;51.020;6.764;2022-12-18T15:25:43;-1.00;99.90
11838;DHT22;5978;51.020;6.764;2022-12-18T15:28:21;-1.00;99.90
11838;DHT22;5978;51.020;6.764;2022-12-18T15:30:59;-1.00;99.90
11838;DHT22;5978;51.020;6.764;2022-12-18T15:33:29;-1.00;99.90
11838;DHT22;5978;51.020;6.764;2022-12-18T15:36:08;-1.00;99.90
11838;DHT22;5978;51.020;6.764;2022-12-18T15:38:34;-1.00;99.90
11838;DHT22;5978;51.020;6.764;2022-12-18T15:40:59;-1.10;99.90
11838;DHT22;5978;51.020;6.764;2022-12-18T15:43:26;-1.10;99.90
11838;DHT22;5978;51.020;6.764;2022-12-18T15:46:03;-1.10;99.90
11838;DHT22;5978;51.020;6.764;2022-12-18T15:48:29;-1.10;99.90
11838;DHT22;5978;51.020;6.764;2022-12-18T15:50:56;-1.10;99.90
11838;DHT22;5978;51.020;6.764;2022-12-18T15:53:23;-1.10;99.90
11838;DHT22;5978;51.020;6.764;2022-12-18T15:55:49;-1.10;99.90
11838;DHT22;5978;51.020;6.764;2022-12-18T15:58:33;-1.20;99.90
11838;DHT22;5978;51.020;6.764;2022-12-18T16:00:59;-1.10;99.90
11838;DHT22;5978;51.020;6.764;2022-12-18T16:03:26;-1.10;99.90
11838;DHT22;5978;51.020;6.764;2022-12-18T16:05:51;-1.10;99.90
11838;DHT22;5978;51.020;6.764;2022-12-18T16:08:17;-1.10;99.90
11838;DHT22;5978;51.020;6.764;2022-12-18T16:10:42;-1.10;99.90
11838;DHT22;5978;51.020;6.764;2022-12-18T16:13:13;-1.10;99.90
11838;DHT22;5978;51.020;6.764;2022-12-18T16:15:41;-1.10;99.90
11838;DHT22;5978;51.020;6.764;2022-12-18T16:18:06;-1.10;99.90
11838;DHT22;5978;51.020;6.764;2022-12-18T16:20:32;-1.10;99.90
11838;DHT22;5978;51.020;6.764;2022-12-18T16:22:57;-1.10;99.90
11838;DHT22;5978;51.020;6.764;2022-12-18T16:25:26;-1.10;99.90
11838;DHT22;5978;51.020;6.764;2022-12-18T16:27:52;-1.10;99.90
11838;DHT22;5978;51.020;6.764;2022-12-18T16:30:22;-1.10;99.90
11838;DHT22;5978;51.020;6.764;2022-12-18T16:32:48;-1.10;99.90
11838;DHT22;5978;51.020;6.764;2022-12-18T16:35:15;-1.20;99.90
11838;DHT22;5978;51.020;6.764;2022-12-18T16:37:41;-1.20;99.90
11838;DHT22;5978;51.020;6.764;2022-12-18T16:40:08;-1.20;99.90
11838;DHT22;5978;51.020;6.764;2022-12-18T16:42:35;-1.10;99.90
11838;DHT22;5978;51.020;6.764;2022-12-18T16:45:02;-1.10;99.90
11838;DHT22;5978;51.020;6.764;2022-12-18T16:47:28;-1.10;99.90
11838;DHT22;5978;51.020;6.764;2022-12-18T16:49:54;-1.20;99.90
11838;DHT22;5978;51.020;6.764;2022-12-18T16:52:20;-1.20;99.90
11838;DHT22;5978;51.020;6.764;2022-12-18T16:54:46;-1.20;99.90
11838;DHT22;5978;51.020;6.764;2022-12-18T16:57:13;-1.20;99.90
11838;DHT22;5978;51.020;6.764;2022-12-18T16:59:39;-1.20;99.90
11838;DHT22;5978;51.020;6.764;2022-12-18T17:02:05;-1.30;99.90
11838;DHT22;5978;51.020;6.764;2022-12-18T17:04:31;-1.30;99.90
11838;DHT22;5978;51.020;6.764;2022-12-18T17:06:57;-1.30;99.90
11838;DHT22;5978;51.020;6.764;2022-12-18T17:09:23;-1.30;99.90
11838;DHT22;5978;51.020;6.764;2022-12-18T17:11:52;-1.30;99.90
11838;DHT22;5978;51.020;6.764;2022-12-18T17:14:20;-1.30;99.90
11838;DHT22;5978;51.020;6.764;2022-12-18T17:16:46;-1.30;99.90
11838;DHT22;5978;51.020;6.764;2022-12-18T17:19:12;-1.30;99.90
11838;DHT22;5978;51.020;6.764;2022-12-18T17:21:38;-1.30;99.90
11838;DHT22;5978;51.020;6.764;2022-12-18T17:24:04;-1.30;99.90
11838;DHT22;5978;51.020;6.764;2022-12-18T17:26:30;-1.40;99.90
11838;DHT22;5978;51.020;6.764;2022-12-18T17:28:56;-1.40;99.90
11838;DHT22;5978;51.020;6.764;2022-12-18T17:31:25;-1.30;99.90
11838;DHT22;5978;51.020;6.764;2022-12-18T17:33:50;-1.30;99.90
11838;DHT22;5978;51.020;6.764;2022-12-18T17:36:17;-1.30;99.90
11838;DHT22;5978;51.020;6.764;2022-12-18T17:38:48;-1.30;99.90
11838;DHT22;5978;51.020;6.764;2022-12-18T17:41:14;-1.40;99.90
11838;DHT22;5978;51.020;6.764;2022-12-18T17:43:40;-1.40;99.90
11838;DHT22;5978;51.020;6.764;2022-12-18T17:46:13;-1.30;99.90
11838;DHT22;5978;51.020;6.764;2022-12-18T17:48:40;-1.30;99.90